Impacts METAR Board INFO
IDs:

KPDX - Portland Intl Arpt, OR, US

Updated at: 0819 UTC 15 Dec 2017
Potential Impact None Slight Moderate High
Time14/20Z 14/21Z 14/22Z 14/23Z 15/00Z 15/01Z 15/02Z 15/03Z 15/04Z 15/05Z 15/06Z 15/07Z 15/08Z
VIS10 10 10 10 10 10 10 10 10 10 10 10 10
CIG250 250 260 260 260 220 220 260 -- -- 250 -- --
CoverBKNBKNBKNBKNBKNOVCOVCBKNFEWFEWBKNCLRFEW
FltCatVFRVFRVFRVFRVFRVFRVFRVFRVFRVFRVFRVFRVFR
WX--------------------------
WDir11012012012013012012013012013012013050
WSpd14 12 11 11 12 10 13 10 11 9 11 8 4
WGst-- -- -- -- -- -- -- -- -- -- -- -- --
Raw hourly METARs
KPDX 141953Z 11014KT 10SM BKN250 06/M02 A3034 RMK AO2 SLP274 T00611022
KPDX 142053Z 12012KT 10SM BKN250 06/M02 A3032 RMK AO2 SLP266 T00611022 58015
KPDX 142153Z 12011KT 10SM FEW025 FEW200 BKN260 06/M02 A3031 RMK AO2 SLP264 T00611022
KPDX 142253Z 12011KT 10SM FEW025 SCT220 BKN260 06/M02 A3030 RMK AO2 SLP262 T00561022
KPDX 142353Z 13012KT 10SM FEW025 FEW220 BKN260 04/M02 A3030 RMK AO2 SLP260 CCSL NE T00441022 10067 20044 58005
KPDX 150053Z 12010KT 10SM FEW025 BKN220 OVC260 04/M02 A3030 RMK AO2 SLP262 T00391022
KPDX 150153Z 12013KT 10SM BKN220 OVC260 04/M03 A3030 RMK AO2 SLP260 T00391028
KPDX 150253Z 13010KT 10SM FEW220 BKN260 03/M03 A3031 RMK AO2 SLP263 T00331028 53003
KPDX 150353Z 12011KT 10SM FEW250 03/M03 A3030 RMK AO2 SLP259 T00331028
KPDX 150453Z 13009KT 10SM FEW250 03/M03 A3029 RMK AO2 SLP255 T00281028
KPDX 150553Z 12011KT 10SM BKN250 03/M02 A3029 RMK AO2 SLP255 T00281022 10044 20022 56008
KPDX 150653Z 13008KT 10SM CLR 02/M03 A3029 RMK AO2 SLP257 T00221028
KPDX 150753Z 05004KT 10SM FEW250 02/M02 A3031 RMK AO2 SLP262 T00221017 400670000